Time;durP1;ratioP1;P1;durP2;ratioP2;P2;SDS_P1;SDS_P2;PMS_P1;PMS_P2;Temp;Humidity;BMP_temperature;BMP_pressure;BME280_temperature;BME280_humidity;BME280_pressure;Samples;Min_cycle;Max_cycle;Signal;HPM_P1;HPM_P2
2022/12/26 00:01:50;;;;;;;25.50;12.50;;;;;;;8.67;100.00;100909.69;5063677;28;20029;-81
2022/12/26 00:04:16;;;;;;;29.13;14.50;;;;;;;8.67;100.00;100911.50;5063816;28;20044;-81
2022/12/26 00:06:42;;;;;;;29.48;15.43;;;;;;;8.59;100.00;100912.41;5063438;28;20028;-81
2022/12/26 00:09:07;;;;;;;27.25;14.15;;;;;;;8.62;100.00;100924.50;5064933;28;20037;-81
2022/12/26 00:11:33;;;;;;;28.73;13.52;;;;;;;8.60;100.00;100922.03;5062523;28;20033;-82
2022/12/26 00:14:03;;;;;;;28.10;13.27;;;;;;;8.56;100.00;100915.44;5063232;28;20071;-81
2022/12/26 00:16:28;;;;;;;26.90;13.32;;;;;;;8.55;100.00;100921.75;5061674;28;20499;-81
2022/12/26 00:18:54;;;;;;;27.48;12.80;;;;;;;8.54;100.00;100923.59;5064229;28;20036;-81
2022/12/26 00:21:22;;;;;;;24.95;11.85;;;;;;;8.56;100.00;100928.72;5062385;28;20028;-81
2022/12/26 00:23:48;;;;;;;28.25;13.35;;;;;;;8.56;100.00;100931.38;5046034;28;20025;-81
2022/12/26 00:26:18;;;;;;;29.45;13.43;;;;;;;8.63;100.00;100937.63;5064704;28;20475;-81
2022/12/26 00:28:45;;;;;;;26.83;13.13;;;;;;;8.59;100.00;100936.31;5062881;28;20040;-81
2022/12/26 00:31:17;;;;;;;26.63;14.25;;;;;;;8.69;100.00;100952.03;5064132;28;20086;-81
2022/12/26 00:33:42;;;;;;;25.95;12.63;;;;;;;8.71;100.00;100945.50;5045051;28;20031;-81
2022/12/26 00:36:11;;;;;;;27.48;13.48;;;;;;;8.75;100.00;100961.91;5044673;28;20024;-81
2022/12/26 00:38:38;;;;;;;28.35;15.82;;;;;;;8.76;100.00;100975.03;5061307;28;20033;-81
2022/12/26 00:41:05;;;;;;;28.80;13.13;;;;;;;8.80;100.00;100972.84;5063188;28;20039;-81
2022/12/26 00:43:30;;;;;;;28.88;14.18;;;;;;;8.83;100.00;100977.81;5045621;28;20037;-82
2022/12/26 00:45:56;;;;;;;29.52;15.48;;;;;;;8.82;100.00;100967.34;5043231;28;20046;-81
2022/12/26 00:48:21;;;;;;;28.23;15.15;;;;;;;8.88;100.00;100961.28;5060546;28;20053;-81
2022/12/26 00:50:47;;;;;;;32.92;14.43;;;;;;;8.89;100.00;100966.44;5062316;28;20090;-81
2022/12/26 00:53:12;;;;;;;27.88;15.25;;;;;;;8.90;100.00;100964.59;5043242;28;20051;-81
2022/12/26 00:55:38;;;;;;;29.27;15.05;;;;;;;8.92;100.00;100965.25;5062516;28;20078;-81
2022/12/26 00:58:03;;;;;;;30.63;15.50;;;;;;;8.92;100.00;100976.72;5062258;28;20040;-81
2022/12/26 01:00:29;;;;;;;31.20;14.98;;;;;;;8.90;100.00;100973.41;5061948;28;20490;-81
2022/12/26 01:02:54;;;;;;;30.92;14.85;;;;;;;8.94;100.00;100973.88;5044064;28;20132;-81
2022/12/26 01:05:20;;;;;;;30.67;15.27;;;;;;;8.94;100.00;100985.34;5062539;28;20113;-81
2022/12/26 01:07:45;;;;;;;31.90;16.67;;;;;;;8.92;100.00;100987.34;5061769;28;20476;-81
2022/12/26 01:10:12;;;;;;;31.52;15.75;;;;;;;8.95;100.00;100976.34;5043039;28;20080;-81
2022/12/26 01:12:37;;;;;;;35.22;19.20;;;;;;;8.95;100.00;100970.19;5062039;28;20115;-81
2022/12/26 01:15:06;;;;;;;33.28;17.23;;;;;;;8.90;100.00;100961.94;5062097;28;20119;-81
2022/12/26 01:17:31;;;;;;;31.15;15.38;;;;;;;8.93;100.00;100983.69;5062412;28;20028;-81
2022/12/26 01:19:57;;;;;;;31.95;15.90;;;;;;;8.87;100.00;100981.75;5062074;28;20378;-81
2022/12/26 01:22:24;;;;;;;34.13;17.85;;;;;;;8.89;100.00;100986.91;5061566;28;20040;-81
2022/12/26 01:24:52;;;;;;;32.63;17.58;;;;;;;8.89;100.00;101003.69;5044684;28;20119;-81
2022/12/26 01:27:18;;;;;;;33.47;18.55;;;;;;;8.89;100.00;100998.34;5044376;28;20082;-81
2022/12/26 01:29:44;;;;;;;32.80;17.58;;;;;;;8.86;100.00;100985.44;5044265;28;20028;-81
2022/12/26 01:32:09;;;;;;;34.42;19.13;;;;;;;8.88;100.00;100988.75;5044055;28;20025;-81
2022/12/26 01:34:34;;;;;;;32.90;18.05;;;;;;;8.87;100.00;100983.59;5060735;28;20036;-80
2022/12/26 01:37:00;;;;;;;32.78;16.98;;;;;;;8.88;100.00;100982.56;5061243;28;20044;-81
2022/12/26 01:39:25;;;;;;;36.35;17.60;;;;;;;8.88;100.00;100987.88;5060730;28;20024;-81
2022/12/26 01:41:50;;;;;;;33.63;16.55;;;;;;;8.85;100.00;100973.13;5060521;28;20471;-81
2022/12/26 01:45:10;;;;;;;32.53;16.92;;;;;;;8.87;100.00;100980.94;5060838;28;20578;-81
2022/12/26 01:47:45;;;;;;;33.35;16.40;;;;;;;8.84;100.00;100992.75;4980169;28;20495;-81
2022/12/26 01:50:23;;;;;;;28.92;15.50;;;;;;;8.76;100.00;100985.69;5048401;28;20128;-81
2022/12/26 01:52:49;;;;;;;30.80;15.60;;;;;;;8.81;100.00;100987.00;5060803;28;20029;-81
2022/12/26 01:55:18;;;;;;;29.63;15.13;;;;;;;8.78;100.00;100982.84;5061678;28;20070;-81
2022/12/26 01:57:49;;;;;;;32.47;15.18;;;;;;;8.72;100.00;100980.91;5061498;28;20411;-81
2022/12/26 02:00:15;;;;;;;29.00;14.82;;;;;;;8.72;100.00;100978.25;5062062;28;20029;-81
2022/12/26 02:05:35;;;;;;;32.03;17.63;;;;;;;8.71;100.00;100989.91;5061086;28;20082;-81
2022/12/26 02:08:04;;;;;;;33.42;15.68;;;;;;;8.73;100.00;100991.38;5060211;28;20029;-81
2022/12/26 02:10:35;;;;;;;33.63;17.90;;;;;;;8.71;100.00;100990.72;5059549;28;20052;-81
2022/12/26 02:13:01;;;;;;;35.92;17.25;;;;;;;8.72;100.00;100994.19;5058817;28;20056;-81
2022/12/26 02:15:27;;;;;;;34.40;17.40;;;;;;;8.71;100.00;101000.53;5043465;28;20493;-81
2022/12/26 02:17:52;;;;;;;34.15;16.25;;;;;;;8.69;100.00;100995.38;5059080;28;20124;-81
2022/12/26 02:20:26;;;;;;;32.40;17.25;;;;;;;8.69;100.00;100992.72;5061256;28;20115;-81
2022/12/26 02:23:03;;;;;;;31.63;17.33;;;;;;;8.72;100.00;101002.19;5061138;28;20066;-81
2022/12/26 02:25:59;;;;;;;34.40;17.95;;;;;;;8.72;100.00;101002.19;5060781;28;20044;-82
2022/12/26 02:28:48;;;;;;;34.13;18.45;;;;;;;8.71;100.00;101001.34;5041915;28;20115;-80
2022/12/26 02:31:22;;;;;;;28.52;13.63;;;;;;;8.71;100.00;101001.34;5059872;28;20024;-81
2022/12/26 02:33:51;;;;;;;29.35;15.82;;;;;;;8.70;100.00;101010.34;5060353;28;20056;-81
2022/12/26 02:36:30;;;;;;;28.85;13.73;;;;;;;8.71;100.00;101001.34;5060527;28;20032;-81
2022/12/26 02:39:12;;;;;;;25.52;13.57;;;;;;;8.70;100.00;100983.75;5061232;28;20618;-82
2022/12/26 02:41:44;;;;;;;28.05;15.95;;;;;;;8.69;100.00;100997.22;5059486;28;20087;-81
2022/12/26 02:48:04;;;;;;;23.88;12.00;;;;;;;8.63;100.00;100990.78;5061646;28;20807;-81
2022/12/26 03:14:19;;;;;;;23.50;12.02;;;;;;;8.65;100.00;100991.44;5065786;28;20036;-81
2022/12/26 03:19:36;;;;;;;22.17;10.70;;;;;;;8.62;100.00;100997.13;5064969;28;20938;-81
2022/12/26 03:22:29;;;;;;;20.63;10.38;;;;;;;8.59;100.00;101005.44;5045273;28;20029;-81
2022/12/26 03:27:36;;;;;;;22.88;11.15;;;;;;;8.55;100.00;101010.31;5063093;28;20470;-81
2022/12/26 03:32:47;;;;;;;21.58;11.30;;;;;;;8.56;100.00;101000.50;5064195;28;20047;-81
2022/12/26 03:35:14;;;;;;;21.30;11.00;;;;;;;8.55;100.00;100982.91;5047799;28;20037;-81
2022/12/26 03:37:54;;;;;;;19.10;9.05;;;;;;;8.58;100.00;100982.53;5045487;28;20032;-81
2022/12/26 04:19:27;;;;;;;15.93;6.40;;;;;;;8.37;100.00;101025.72;5062407;28;20094;-82
2022/12/26 04:44:52;;;;;;;14.52;6.07;;;;;;;8.14;100.00;101025.69;5062333;28;20511;-82
2022/12/26 04:47:18;;;;;;;15.25;6.28;;;;;;;8.08;100.00;101029.06;5057312;28;20057;-82
2022/12/26 04:52:53;;;;;;;11.98;5.75;;;;;;;8.09;100.00;101020.91;5045787;28;20117;-82
2022/12/26 04:55:15;;;;;;;12.75;5.70;;;;;;;8.03;100.00;101016.31;5047282;28;20051;-82
2022/12/26 04:57:40;;;;;;;9.23;4.25;;;;;;;8.04;100.00;101009.16;5051106;28;20024;-82
2022/12/26 05:00:06;;;;;;;10.90;4.90;;;;;;;8.04;100.00;101015.31;5037934;28;20479;-82
2022/12/26 05:10:44;;;;;;;12.80;5.28;;;;;;;7.94;100.00;101025.34;5050739;28;20040;-81
2022/12/26 05:13:09;;;;;;;11.60;5.50;;;;;;;7.92;100.00;101014.06;5044864;28;20029;-82
2022/12/26 05:28:40;;;;;;;9.18;4.63;;;;;;;7.85;100.00;100997.16;5034319;28;20025;-81
2022/12/26 05:29:28;;;;;;;12.35;5.25;;;;;;;7.89;100.00;101040.97;5051855;28;20055;-81
2022/12/26 05:31:53;;;;;;;10.57;5.15;;;;;;;7.85;100.00;101032.50;5047840;28;20048;-82
2022/12/26 05:34:20;;;;;;;12.88;5.70;;;;;;;7.87;100.00;101033.16;5034002;28;20036;-82
2022/12/26 05:36:45;;;;;;;11.60;4.53;;;;;;;7.87;100.00;101030.50;5050409;28;20434;-82
2022/12/26 05:39:11;;;;;;;10.73;4.97;;;;;;;7.86;100.00;101039.50;5046215;28;20104;-82
2022/12/26 05:41:37;;;;;;;11.00;5.57;;;;;;;7.81;100.00;101019.78;5046994;28;20116;-82
2022/12/26 05:44:04;;;;;;;11.55;5.65;;;;;;;7.81;100.00;101020.59;5040717;28;20142;-82
2022/12/26 05:46:29;;;;;;;14.48;6.45;;;;;;;7.82;100.00;101021.41;5043190;28;20038;-82
2022/12/26 05:48:54;;;;;;;13.30;4.88;;;;;;;7.76;100.00;101009.66;5061763;28;20077;-82
2022/12/26 05:51:20;;;;;;;15.10;5.88;;;;;;;7.77;100.00;101003.34;5041847;28;20499;-75
2022/12/26 05:53:47;;;;;;;11.73;4.43;;;;;;;7.75;100.00;100996.56;5066077;28;20064;-75
2022/12/26 05:56:14;;;;;;;11.00;5.10;;;;;;;7.72;100.00;100988.94;5049744;28;20472;-75
2022/12/26 05:58:41;;;;;;;13.05;4.93;;;;;;;7.73;100.00;100991.44;5031902;28;20399;-75
2022/12/26 06:01:10;;;;;;;12.10;4.53;;;;;;;7.74;100.00;100992.25;5049922;28;20032;-75
2022/12/26 06:03:37;;;;;;;10.57;4.57;;;;;;;7.69;100.00;100990.13;5049489;28;20032;-75
2022/12/26 06:06:03;;;;;;;11.23;4.47;;;;;;;7.65;100.00;100991.47;5031826;28;20024;-75
2022/12/26 06:08:29;;;;;;;13.63;4.78;;;;;;;7.66;100.00;101007.22;5031983;28;20033;-75
2022/12/26 06:10:54;;;;;;;11.75;4.65;;;;;;;7.64;100.00;101003.91;5015141;28;20496;-75
2022/12/26 06:13:19;;;;;;;11.48;4.82;;;;;;;7.63;100.00;101010.22;5043065;28;20033;-75
2022/12/26 06:15:45;;;;;;;9.75;4.40;;;;;;;7.72;100.00;101021.63;5050144;28;20040;-75
2022/12/26 06:18:10;;;;;;;11.57;4.68;;;;;;;7.71;100.00;101009.38;5051049;28;20447;-75
2022/12/26 06:20:39;;;;;;;12.52;5.00;;;;;;;7.79;100.00;101022.59;5069237;28;20119;-75
2022/12/26 06:23:04;;;;;;;12.75;4.95;;;;;;;7.83;100.00;101023.91;5050835;28;20472;-75
2022/12/26 06:25:30;;;;;;;10.82;4.10;;;;;;;7.87;100.00;101025.19;5051223;28;20032;-75
2022/12/26 06:27:55;;;;;;;13.13;5.13;;;;;;;7.92;100.00;101026.50;5051390;28;20024;-75
2022/12/26 06:30:20;;;;;;;10.95;4.00;;;;;;;7.95;100.00;101028.81;5068646;28;20509;-75
2022/12/26 06:32:46;;;;;;;10.95;4.82;;;;;;;7.99;100.00;101019.47;5051336;28;20032;-75
2022/12/26 06:35:11;;;;;;;9.88;4.10;;;;;;;8.00;100.00;101029.13;5069449;28;20111;-75
2022/12/26 06:37:37;;;;;;;8.40;4.35;;;;;;;7.95;100.00;101034.94;5067692;28;20036;-75
2022/12/26 06:40:03;;;;;;;10.35;3.92;;;;;;;7.96;100.00;101044.56;5062361;28;20029;-75
2022/12/26 06:42:28;;;;;;;9.70;4.10;;;;;;;7.94;100.00;101045.72;5050989;28;20036;-74
2022/12/26 06:44:54;;;;;;;9.93;4.15;;;;;;;7.95;100.00;101052.72;5051053;28;20116;-75
2022/12/26 06:47:19;;;;;;;10.15;5.20;;;;;;;7.93;100.00;101044.09;5068823;28;20997;-75
2022/12/26 06:49:44;;;;;;;9.48;4.15;;;;;;;7.92;100.00;101050.41;5068982;28;20028;-74
2022/12/26 06:52:10;;;;;;;11.10;4.70;;;;;;;7.94;100.00;101046.59;5034259;28;20068;-75
2022/12/26 06:54:36;;;;;;;11.90;5.57;;;;;;;7.92;100.00;101053.06;5032136;28;20021;-74
2022/12/26 06:57:01;;;;;;;11.48;5.55;;;;;;;7.91;100.00;101052.22;5049219;28;20108;-75
2022/12/26 06:59:27;;;;;;;9.32;4.78;;;;;;;7.90;100.00;101045.28;5049300;28;20480;-75
2022/12/26 07:01:52;;;;;;;9.20;4.43;;;;;;;7.88;100.00;101050.75;5049378;28;20549;-75
2022/12/26 07:04:18;;;;;;;9.35;4.15;;;;;;;7.82;100.00;101042.66;5049438;28;20048;-75
2022/12/26 07:06:43;;;;;;;7.55;3.85;;;;;;;7.86;100.00;101046.63;5031670;28;20098;-75
2022/12/26 07:09:13;;;;;;;12.80;3.63;;;;;;;7.83;100.00;101044.31;5031427;28;20093;-75
2022/12/26 07:11:41;;;;;;;11.13;4.72;;;;;;;7.78;100.00;101049.31;5031461;28;20025;-75
2022/12/26 07:14:07;;;;;;;9.55;4.13;;;;;;;7.80;100.00;101052.63;5049218;28;20090;-75
2022/12/26 07:16:37;;;;;;;11.48;5.70;;;;;;;7.75;100.00;101058.44;5031694;28;20033;-75
2022/12/26 07:19:03;;;;;;;9.15;4.75;;;;;;;7.71;100.00;101054.50;5049274;28;20039;-75
2022/12/26 07:21:28;;;;;;;9.57;4.35;;;;;;;7.71;100.00;101058.97;5048949;28;20041;-75
2022/12/26 07:23:54;;;;;;;7.00;3.45;;;;;;;7.63;100.00;101043.91;5049085;28;20029;-75
2022/12/26 07:26:20;;;;;;;9.73;3.95;;;;;;;7.65;100.00;101058.66;5049060;28;20114;-75
2022/12/26 07:28:46;;;;;;;11.88;5.47;;;;;;;7.62;100.00;101055.50;5049119;28;20051;-75
2022/12/26 07:31:16;;;;;;;11.35;4.75;;;;;;;7.65;100.00;101066.63;5048982;28;20033;-75
2022/12/26 07:33:42;;;;;;;7.53;4.30;;;;;;;7.60;100.00;101062.84;5031427;28;20032;-75
2022/12/26 07:36:07;;;;;;;6.53;3.55;;;;;;;7.65;100.00;101063.13;5048859;28;20052;-75
2022/12/26 07:38:33;;;;;;;10.68;4.35;;;;;;;7.63;100.00;101076.59;5049791;28;20051;-75
2022/12/26 07:41:56;;;;;;;6.88;3.50;;;;;;;7.61;100.00;101073.28;5068543;28;20029;-75
2022/12/26 07:43:44;;;;;;;7.22;4.03;;;;;;;7.65;100.00;101076.41;5071727;28;20040;-75
2022/12/26 07:46:10;;;;;;;7.68;3.85;;;;;;;7.61;100.00;101067.97;5057973;28;20078;-75
2022/12/26 07:48:35;;;;;;;9.40;4.97;;;;;;;7.68;100.00;101078.75;5052113;28;20049;-75
2022/12/26 07:51:01;;;;;;;8.23;3.92;;;;;;;7.64;100.00;101088.84;5034264;28;20041;-75
2022/12/26 07:53:26;;;;;;;7.13;3.50;;;;;;;7.63;100.00;101087.22;5052319;28;20025;-75
2022/12/26 07:55:51;;;;;;;7.00;3.38;;;;;;;7.63;100.00;101078.41;5034332;28;20051;-75
2022/12/26 07:58:17;;;;;;;11.95;4.30;;;;;;;7.67;100.00;101080.53;5034217;28;20175;-75
2022/12/26 08:00:42;;;;;;;5.95;3.30;;;;;;;7.64;100.00;101077.41;5017703;28;20068;-75
2022/12/26 08:03:08;;;;;;;7.20;4.22;;;;;;;7.63;100.00;101079.25;5052004;28;20513;-75
2022/12/26 08:05:33;;;;;;;8.38;3.60;;;;;;;7.58;100.00;101084.25;5051938;28;20476;-75
2022/12/26 08:07:58;;;;;;;9.43;3.83;;;;;;;7.63;100.00;101094.34;5017272;28;20040;-75
2022/12/26 08:10:24;;;;;;;9.32;4.47;;;;;;;7.66;100.00;101094.00;5034129;28;20114;-75
2022/12/26 08:12:49;;;;;;;6.78;4.10;;;;;;;7.63;100.00;101083.72;5034074;28;20067;-74
2022/12/26 08:15:14;;;;;;;9.98;4.28;;;;;;;7.67;100.00;101093.00;5017506;28;20029;-75
2022/12/26 08:17:41;;;;;;;8.95;4.00;;;;;;;7.67;100.00;101082.38;5051577;28;20029;-75
2022/12/26 08:20:07;;;;;;;10.98;3.72;;;;;;;7.63;100.00;101084.56;5034021;28;20090;-75
2022/12/26 08:22:32;;;;;;;9.63;3.63;;;;;;;7.66;100.00;101086.03;5051800;28;20132;-74
2022/12/26 08:24:57;;;;;;;7.07;3.90;;;;;;;7.72;100.00;101093.31;5033805;28;20060;-74
2022/12/26 08:27:23;;;;;;;12.85;5.05;;;;;;;7.76;100.00;101088.50;5051680;28;20025;-75
2022/12/26 08:29:48;;;;;;;7.47;2.83;;;;;;;7.79;100.00;101080.19;5051527;28;20400;-74
2022/12/26 08:32:14;;;;;;;7.40;3.63;;;;;;;7.83;100.00;101077.00;5044720;28;20427;-75
2022/12/26 08:34:39;;;;;;;5.88;3.38;;;;;;;7.88;100.00;101079.13;5027688;28;20119;-75
2022/12/26 08:37:04;;;;;;;7.55;4.13;;;;;;;7.97;100.00;101079.94;5027995;28;20036;-75
2022/12/26 08:39:30;;;;;;;10.95;3.55;;;;;;;8.06;100.00;101081.53;5032492;28;20487;-75
2022/12/26 08:41:55;;;;;;;7.82;3.95;;;;;;;8.22;100.00;101091.25;5033682;28;20033;-75
2022/12/26 08:44:20;;;;;;;5.43;3.38;;;;;;;8.39;100.00;101082.19;5051407;28;20490;-75
2022/12/26 08:46:46;;;;;;;7.28;3.25;;;;;;;8.53;100.00;101092.06;5051240;28;20061;-74
2022/12/26 08:49:11;;;;;;;6.15;3.75;;;;;;;8.63;100.00;101089.16;5051281;28;20060;-76
2022/12/26 08:51:37;;;;;;;7.32;3.25;;;;;;;8.78;100.00;101103.34;5051321;28;20712;-75
2022/12/26 08:54:04;;;;;;;8.15;4.65;;;;;;;8.83;100.00;101104.63;5051090;28;20021;-75
2022/12/26 08:56:29;;;;;;;7.53;3.50;;;;;;;8.89;100.00;101114.56;5051213;28;20041;-75
2022/12/26 08:58:55;;;;;;;6.55;3.03;;;;;;;8.89;100.00;101111.91;5051146;28;20021;-75
2022/12/26 09:01:26;;;;;;;5.05;2.78;;;;;;;8.90;100.00;101106.41;5033081;28;20491;-74
2022/12/26 09:03:53;;;;;;;7.80;2.90;;;;;;;9.02;100.00;101119.28;5051081;28;20076;-75
2022/12/26 09:06:19;;;;;;;4.32;2.78;;;;;;;9.16;100.00;101121.13;5050840;28;20315;-75
2022/12/26 09:08:44;;;;;;;6.63;2.83;;;;;;;9.22;100.00;101123.06;5032940;28;20028;-75
2022/12/26 09:11:16;;;;;;;6.78;2.72;;;;;;;9.32;100.00;101120.97;5016115;28;20029;-75
2022/12/26 09:13:43;;;;;;;7.32;3.00;;;;;;;9.32;100.00;101120.97;5050742;28;20025;-75
2022/12/26 09:16:09;;;;;;;9.45;3.10;;;;;;;9.42;100.00;101132.19;5032785;28;20039;-75
2022/12/26 09:18:34;;;;;;;6.90;2.97;;;;;;;9.39;100.00;101127.22;5050675;28;20033;-75
2022/12/26 09:21:02;;;;;;;4.65;2.65;;;;;;;9.39;100.00;101127.22;5050724;28;20387;-75
2022/12/26 09:23:28;;;;;;;6.40;2.45;;;;;;;9.39;100.00;101121.09;5050601;28;20167;-75
2022/12/26 09:25:53;;;;;;;6.38;2.38;;;;;;;9.37;100.00;101133.75;5050288;28;20517;-75
2022/12/26 09:28:18;;;;;;;8.80;2.88;;;;;;;9.35;100.00;101130.44;5032787;28;20533;-75
2022/12/26 09:30:44;;;;;;;4.25;2.53;;;;;;;9.38;100.00;101135.41;5032676;28;20033;-75
2022/12/26 09:33:09;;;;;;;3.75;1.88;;;;;;;9.39;100.00;101143.22;5032618;28;20056;-73
2022/12/26 09:35:39;;;;;;;5.93;2.15;;;;;;;9.46;100.00;101137.13;5044349;28;20037;-74
2022/12/26 09:38:04;;;;;;;7.13;2.75;;;;;;;9.46;100.00;101138.00;5044492;28;20040;-75
2022/12/26 09:40:44;;;;;;;3.38;1.92;;;;;;;9.48;100.00;101145.78;5010297;28;20371;-75
2022/12/26 09:43:56;;;;;;;4.43;2.03;;;;;;;9.56;100.00;101143.03;5044486;28;20053;-75
2022/12/26 09:46:33;;;;;;;6.80;2.22;;;;;;;9.55;100.00;101171.50;4967705;28;20036;-74
2022/12/26 09:49:07;;;;;;;3.50;2.17;;;;;;;9.54;100.00;101161.88;5047479;28;20025;-74
2022/12/26 09:51:35;;;;;;;4.15;1.98;;;;;;;9.53;100.00;101165.53;5054507;28;20071;-73
2022/12/26 09:54:03;;;;;;;3.60;1.88;;;;;;;9.54;100.00;101177.84;5054857;28;20420;-77
2022/12/26 09:56:32;;;;;;;3.67;2.25;;;;;;;9.50;100.00;101165.88;5052660;28;20017;-77
2022/12/26 09:59:04;;;;;;;8.70;3.78;;;;;;;9.50;100.00;101176.53;5054512;28;20067;-75
2022/12/26 10:01:34;;;;;;;6.03;2.00;;;;;;;9.43;100.00;101172.94;5054929;28;20553;-75
2022/12/26 10:04:16;;;;;;;7.03;2.58;;;;;;;9.47;100.00;101184.91;5037122;28;20552;-75
2022/12/26 10:06:52;;;;;;;4.20;2.65;;;;;;;9.42;100.00;101180.09;5036917;28;20029;-75
2022/12/26 10:09:29;;;;;;;4.95;3.20;;;;;;;9.47;100.00;101186.75;5053916;28;20493;-74
2022/12/26 10:12:04;;;;;;;6.45;2.83;;;;;;;9.45;100.00;101186.91;5054505;28;20032;-74
2022/12/26 10:14:50;;;;;;;9.63;2.95;;;;;;;9.42;100.00;101189.94;5054193;28;20025;-74
2022/12/26 10:17:48;;;;;;;3.83;2.00;;;;;;;9.42;100.00;101197.91;5053190;28;20033;-79
2022/12/26 10:20:26;;;;;;;7.30;2.38;;;;;;;9.42;100.00;101193.41;5052477;28;20092;-75
2022/12/26 10:23:18;;;;;;;4.63;2.03;;;;;;;9.53;100.00;101196.66;5055102;28;20616;-76
2022/12/26 10:25:46;;;;;;;;;;;;;;;9.66;100.00;101205.66;5053819;28;20028;-75
2022/12/26 10:28:50;;;;;;;4.10;2.40;;;;;;;9.71;100.00;101196.31;5054752;28;19954;-74
2022/12/26 10:31:35;;;;;;;5.60;2.42;;;;;;;9.62;100.00;101190.25;5031404;28;20028;-77
2022/12/26 10:34:11;;;;;;;5.90;2.78;;;;;;;9.56;100.00;101194.47;5053489;28;20047;-75
2022/12/26 10:36:42;;;;;;;6.18;2.10;;;;;;;9.49;100.00;101187.38;5036017;28;20029;-75
2022/12/26 10:39:19;;;;;;;3.17;2.30;;;;;;;9.55;100.00;101203.44;5036129;28;21662;-72
2022/12/26 10:41:50;;;;;;;7.82;3.78;;;;;;;9.55;100.00;101242.56;5053424;28;20083;-74
2022/12/26 10:44:15;;;;;;;2.10;1.38;;;;;;;9.31;100.00;101256.91;5034642;28;20031;-76
2022/12/26 10:47:03;;;;;;;7.68;1.70;;;;;;;9.02;100.00;101254.97;5053853;28;20147;-75
2022/12/26 10:49:28;;;;;;;3.50;2.10;;;;;;;8.82;100.00;101259.91;5034966;28;20540;-76
2022/12/26 10:51:57;;;;;;;3.88;1.30;;;;;;;8.66;100.00;101266.13;5036254;28;20039;-76
2022/12/26 10:54:23;;;;;;;2.35;1.10;;;;;;;8.57;100.00;101260.03;5036224;28;20369;-78
2022/12/26 10:56:50;;;;;;;6.38;1.30;;;;;;;8.56;100.00;101269.81;5036003;28;20028;-75
2022/12/26 10:59:19;;;;;;;3.03;1.35;;;;;;;8.55;100.00;101273.50;5055262;28;20042;-75
2022/12/26 11:01:47;;;;;;;14.75;3.28;;;;;;;8.53;100.00;101275.47;5033558;28;20021;-83
2022/12/26 11:04:22;;;;;;;6.57;3.40;;;;;;;8.51;100.00;101279.31;5031991;28;20099;-82
2022/12/26 11:06:51;;;;;;;5.30;2.22;;;;;;;8.59;100.00;101286.44;5049265;28;20040;-80
2022/12/26 11:09:38;;;;;;;3.15;1.40;;;;;;;8.61;100.00;101303.03;5050796;28;20542;-82
2022/12/26 11:12:05;;;;;;;6.22;1.75;;;;;;;8.52;100.00;101297.75;5051208;28;20040;-80
2022/12/26 11:14:38;;;;;;;5.30;1.65;;;;;;;8.45;100.00;101301.28;5031048;28;20381;-84
2022/12/26 11:17:10;;;;;;;4.68;1.88;;;;;;;8.41;100.00;101292.84;5050705;28;20032;-81
2022/12/26 11:19:43;;;;;;;3.53;1.40;;;;;;;8.44;100.00;101303.13;5054249;28;20070;-81
2022/12/26 11:22:22;;;;;;;8.48;2.25;;;;;;;8.41;100.00;101316.75;5053218;28;20024;-82
2022/12/26 11:25:06;;;;;;;8.50;2.67;;;;;;;8.41;100.00;101322.06;5053039;28;20032;-81
2022/12/26 11:27:32;;;;;;;9.40;2.33;;;;;;;8.32;100.00;101329.19;5035304;28;20035;-82
2022/12/26 11:30:12;;;;;;;8.30;2.17;;;;;;;8.30;100.00;101317.88;5054780;28;20013;-83
2022/12/26 11:32:38;;;;;;;4.38;2.20;;;;;;;8.29;100.00;101329.53;5053395;28;20036;-83
2022/12/26 11:35:04;;;;;;;5.13;1.90;;;;;;;8.30;100.00;101328.50;5054661;28;20025;-84
2022/12/26 11:37:36;;;;;;;9.38;3.17;;;;;;;8.18;100.00;101318.44;5036849;28;20031;-84
2022/12/26 11:40:03;;;;;;;14.50;4.25;;;;;;;8.13;100.00;101313.63;5054757;28;20021;-82
2022/12/26 11:42:29;;;;;;;7.88;2.90;;;;;;;8.12;100.00;101336.72;5036135;28;20032;-82
2022/12/26 11:44:58;;;;;;;6.78;2.80;;;;;;;8.09;100.00;101342.34;5053828;28;20103;-84
2022/12/26 11:47:28;;;;;;;9.98;2.75;;;;;;;8.05;100.00;101342.88;5032033;28;20053;-81
2022/12/26 11:50:10;;;;;;;9.35;3.03;;;;;;;8.07;100.00;101346.19;5047992;28;20130;-83
2022/12/26 11:52:50;;;;;;;15.10;2.70;;;;;;;8.01;100.00;101358.28;5043105;28;20032;-83
2022/12/26 11:55:25;;;;;;;7.53;2.80;;;;;;;7.91;100.00;101370.91;5050737;28;20025;-83
2022/12/26 11:58:05;;;;;;;7.90;2.55;;;;;;;7.86;100.00;101373.25;5052699;28;20086;-82
2022/12/26 12:00:41;;;;;;;8.77;2.30;;;;;;;7.86;100.00;101375.91;5047561;28;20032;-83
2022/12/26 12:03:13;;;;;;;4.47;2.30;;;;;;;7.97;100.00;101380.06;5053111;28;20120;-83
2022/12/26 12:05:54;;;;;;;14.02;2.60;;;;;;;8.08;100.00;101377.88;5045007;28;20041;-82
2022/12/26 12:08:38;;;;;;;4.28;2.42;;;;;;;8.24;100.00;101386.84;5046494;28;20447;-82
2022/12/26 12:11:04;;;;;;;10.43;3.83;;;;;;;8.29;100.00;101382.69;5038355;28;20024;-82
2022/12/26 12:13:43;;;;;;;10.32;3.30;;;;;;;8.31;100.00;101383.34;5051859;28;20498;-82
2022/12/26 12:16:20;;;;;;;4.95;2.40;;;;;;;8.22;100.00;101387.00;5045693;28;20111;-82
2022/12/26 12:18:58;;;;;;;5.40;1.70;;;;;;;8.09;100.00;101387.50;5051734;28;20483;-82
2022/12/26 12:21:35;;;;;;;7.75;2.20;;;;;;;7.92;100.00;101383.22;5033694;28;20029;-83
2022/12/26 12:24:03;;;;;;;8.35;2.45;;;;;;;7.86;100.00;101390.03;5051612;28;20032;-83
2022/12/26 12:26:44;;;;;;;13.93;3.00;;;;;;;7.77;100.00;101391.00;5027707;28;20439;-82
2022/12/26 12:29:28;;;;;;;13.07;3.53;;;;;;;7.69;100.00;101385.69;5042494;28;20029;-82
2022/12/26 12:32:19;;;;;;;9.52;2.03;;;;;;;7.60;100.00;101381.38;5047285;28;20511;-82
2022/12/26 12:35:01;;;;;;;6.95;1.90;;;;;;;7.44;100.00;101382.16;5043066;28;20036;-82
2022/12/26 12:37:32;;;;;;;4.80;2.03;;;;;;;7.46;100.00;101388.94;5050765;28;20102;-82
2022/12/26 12:40:15;;;;;;;5.82;1.90;;;;;;;7.45;100.00;101399.75;5043326;28;20060;-82
2022/12/26 12:42:56;;;;;;;5.00;2.00;;;;;;;7.33;100.00;101390.41;5041105;28;20020;-81
2022/12/26 12:45:26;;;;;;;9.40;2.67;;;;;;;7.34;100.00;101400.88;5047268;28;20056;-80
2022/12/26 12:48:17;;;;;;;7.47;1.80;;;;;;;7.37;100.00;101399.72;5056782;28;20085;-80
2022/12/26 12:51:03;;;;;;;9.32;2.90;;;;;;;7.36;100.00;101406.00;5050886;28;20037;-82
2022/12/26 12:53:53;;;;;;;5.85;2.15;;;;;;;7.33;100.00;101406.34;5033283;28;20059;-84
2022/12/26 12:56:25;;;;;;;7.70;2.50;;;;;;;7.28;100.00;101401.50;5048491;28;20033;-82
2022/12/26 12:58:57;;;;;;;;;;;;;;;7.33;100.00;101414.31;5046799;28;20047;-82
2022/12/26 13:01:37;;;;;;;8.57;2.70;;;;;;;7.28;100.00;101417.44;5032773;28;19908;-83
2022/12/26 13:04:14;;;;;;;7.45;2.40;;;;;;;7.20;100.00;101405.00;5047784;28;20098;-82
2022/12/26 13:06:52;;;;;;;11.95;4.10;;;;;;;7.18;100.00;101422.06;5051234;28;20037;-88
2022/12/26 13:09:22;;;;;;;11.10;2.80;;;;;;;7.20;100.00;101428.03;5049548;28;20043;-83
2022/12/26 13:11:57;;;;;;;9.77;2.60;;;;;;;7.22;100.00;101439.31;5032352;28;20024;-84
2022/12/26 13:14:27;;;;;;;9.95;3.85;;;;;;;7.22;100.00;101432.16;5047345;28;20054;-84
2022/12/26 13:17:07;;;;;;;7.10;2.47;;;;;;;7.25;100.00;101434.50;5048021;28;20040;-81
2022/12/26 13:19:46;;;;;;;17.55;2.80;;;;;;;7.36;100.00;101440.50;5048621;28;20131;-82
2022/12/26 13:22:24;;;;;;;8.63;2.40;;;;;;;7.41;100.00;101435.56;5046471;28;20025;-83
2022/12/26 13:24:57;;;;;;;6.78;2.25;;;;;;;7.46;100.00;101415.50;5046228;28;20479;-83
2022/12/26 13:27:34;;;;;;;7.85;2.95;;;;;;;7.58;100.00;101431.13;5046430;28;20024;-82
2022/12/26 13:29:59;;;;;;;3.85;2.03;;;;;;;7.60;100.00;101431.81;5045471;28;20024;-84
2022/12/26 13:32:28;;;;;;;3.72;1.58;;;;;;;7.51;100.00;101432.75;5031387;28;20029;-82
2022/12/26 13:34:56;;;;;;;4.38;1.30;;;;;;;7.37;99.42;101435.06;5047015;28;20063;-81
2022/12/26 13:37:36;;;;;;;5.22;2.28;;;;;;;7.29;98.22;101435.03;5048912;28;20056;-82